Time;durP1;ratioP1;P1;durP2;ratioP2;P2;SDS_P1;SDS_P2;PMS_P1;PMS_P2;Temp;Humidity;BMP_temperature;BMP_pressure;BME280_temperature;BME280_humidity;BME280_pressure;Samples;Min_cycle;Max_cycle;Signal;HPM_P1;HPM_P2
2022/04/16 00:00:17;;;;;;;25.58;13.73;;;7.90;99.90;;;;;;5049245;28;20629;-72
2022/04/16 00:02:45;;;;;;;23.80;13.95;;;7.80;99.90;;;;;;5038677;28;20048;-72
2022/04/16 00:05:11;;;;;;;22.08;13.68;;;7.80;99.90;;;;;;5066022;28;20044;-72
2022/04/16 00:07:38;;;;;;;21.70;14.32;;;7.80;99.90;;;;;;5041043;28;20049;-72
2022/04/16 00:10:04;;;;;;;22.67;14.27;;;7.80;99.90;;;;;;5043937;28;20048;-72
2022/04/16 00:12:30;;;;;;;21.33;14.77;;;7.70;99.90;;;;;;5060666;28;20044;-72
2022/04/16 00:14:55;;;;;;;26.70;14.70;;;7.70;99.90;;;;;;5039283;28;20045;-72
2022/04/16 00:17:21;;;;;;;24.45;15.63;;;7.70;99.90;;;;;;5048983;28;20044;-72
2022/04/16 00:19:47;;;;;;;23.90;14.35;;;7.60;99.90;;;;;;5048566;28;20044;-71
2022/04/16 00:22:13;;;;;;;26.98;14.85;;;7.60;99.90;;;;;;5031248;28;20086;-72
2022/04/16 00:24:40;;;;;;;26.60;15.35;;;7.60;99.90;;;;;;5047572;28;20040;-72
2022/04/16 00:27:07;;;;;;;23.63;15.13;;;7.60;99.90;;;;;;5031789;28;20105;-73
2022/04/16 00:29:34;;;;;;;26.20;14.90;;;7.60;99.90;;;;;;5040352;28;20150;-72
2022/04/16 00:32:00;;;;;;;29.83;14.65;;;7.60;99.90;;;;;;5043118;28;20058;-71
2022/04/16 00:34:26;;;;;;;28.75;14.93;;;7.50;99.90;;;;;;5047483;28;20094;-72
2022/04/16 00:36:51;;;;;;;25.92;15.88;;;7.50;99.90;;;;;;5048983;28;20044;-72
2022/04/16 00:39:17;;;;;;;25.70;16.10;;;7.50;99.90;;;;;;5047705;28;20094;-71
2022/04/16 00:41:46;;;;;;;24.20;15.90;;;7.40;99.90;;;;;;5051302;28;20429;-72
2022/04/16 00:44:12;;;;;;;28.02;15.63;;;7.40;99.90;;;;;;5048665;28;20044;-72
2022/04/16 00:46:37;;;;;;;26.70;15.55;;;7.30;99.90;;;;;;5067255;28;20040;-71
2022/04/16 00:49:03;;;;;;;24.15;15.07;;;7.30;99.90;;;;;;5026138;28;20236;-71
2022/04/16 00:51:30;;;;;;;24.13;15.00;;;7.20;99.90;;;;;;5048209;28;20048;-71
2022/04/16 00:53:56;;;;;;;25.23;15.90;;;7.20;99.90;;;;;;5045172;28;20451;-71
2022/04/16 00:56:22;;;;;;;24.73;15.23;;;7.10;99.90;;;;;;5047918;28;20053;-71
2022/04/16 00:58:47;;;;;;;25.25;14.85;;;7.10;99.90;;;;;;5048719;28;20052;-72
2022/04/16 01:01:16;;;;;;;24.00;14.45;;;7.00;99.90;;;;;;5028280;28;20049;-71
2022/04/16 01:03:43;;;;;;;23.50;15.63;;;7.00;99.90;;;;;;5037131;28;20049;-72
2022/04/16 01:06:14;;;;;;;22.25;14.73;;;7.00;99.90;;;;;;5030481;28;20527;-71
2022/04/16 01:08:47;;;;;;;27.42;15.35;;;6.90;99.90;;;;;;5066590;28;20569;-72
2022/04/16 01:11:16;;;;;;;24.55;15.07;;;6.90;99.90;;;;;;5048842;28;20490;-71
2022/04/16 01:13:47;;;;;;;24.45;15.40;;;6.80;99.90;;;;;;5054269;28;20048;-72
2022/04/16 01:16:12;;;;;;;26.27;15.90;;;6.80;99.90;;;;;;5046511;28;20119;-72
2022/04/16 01:18:46;;;;;;;28.38;15.77;;;7.30;99.90;;;;;;5056949;28;20127;-71
2022/04/16 01:21:18;;;;;;;25.33;15.75;;;7.10;99.90;;;;;;5061304;28;20044;-71
2022/04/16 01:23:44;;;;;;;26.17;14.85;;;6.70;99.90;;;;;;5070336;28;20119;-71
2022/04/16 01:26:10;;;;;;;23.65;15.65;;;6.70;99.90;;;;;;5051229;28;20393;-71
2022/04/16 01:28:35;;;;;;;25.25;15.32;;;6.60;99.90;;;;;;5051135;28;20392;-71
2022/04/16 01:31:01;;;;;;;23.55;15.52;;;6.60;99.90;;;;;;5050434;28;20036;-72
2022/04/16 01:33:27;;;;;;;24.75;14.95;;;6.60;99.90;;;;;;5049291;28;20087;-72
2022/04/16 01:35:56;;;;;;;25.75;15.15;;;6.50;99.90;;;;;;5052222;28;20087;-72
2022/04/16 01:38:25;;;;;;;25.60;14.68;;;6.50;99.90;;;;;;5070474;28;20084;-72
2022/04/16 01:40:56;;;;;;;26.15;14.40;;;6.50;99.90;;;;;;5064474;28;20132;-71
2022/04/16 01:43:22;;;;;;;21.95;14.50;;;6.50;99.90;;;;;;5067355;28;20217;-72
2022/04/16 01:45:49;;;;;;;23.80;15.32;;;6.40;99.90;;;;;;5069059;28;20465;-71
2022/04/16 01:48:19;;;;;;;22.65;14.80;;;6.40;99.90;;;;;;5052992;28;20428;-72
2022/04/16 01:50:46;;;;;;;24.70;14.20;;;6.40;99.90;;;;;;5048530;28;20063;-71
2022/04/16 01:53:12;;;;;;;25.35;14.48;;;6.30;99.90;;;;;;5068611;28;20049;-71
2022/04/16 01:55:38;;;;;;;22.33;14.00;;;6.30;99.90;;;;;;5033757;28;20076;-71
2022/04/16 01:58:06;;;;;;;21.88;13.77;;;6.30;99.90;;;;;;5066966;28;20110;-72
2022/04/16 02:00:33;;;;;;;23.60;14.20;;;6.20;99.90;;;;;;5051197;28;20068;-72
2022/04/16 02:03:00;;;;;;;21.95;13.80;;;6.10;99.90;;;;;;5061468;28;20044;-72
2022/04/16 02:05:25;;;;;;;23.05;14.27;;;6.10;99.90;;;;;;5068609;28;20040;-72
2022/04/16 02:07:51;;;;;;;21.15;14.25;;;6.00;99.90;;;;;;5050438;28;20064;-71
2022/04/16 02:10:17;;;;;;;20.95;13.57;;;5.90;99.90;;;;;;5032741;28;20051;-71
2022/04/16 02:12:46;;;;;;;25.02;14.60;;;5.90;99.90;;;;;;5048399;28;20040;-71
2022/04/16 02:15:12;;;;;;;24.58;14.25;;;5.80;99.90;;;;;;5049403;28;20059;-71
2022/04/16 02:17:39;;;;;;;19.38;12.88;;;5.80;99.90;;;;;;5067348;28;20041;-71
2022/04/16 02:20:07;;;;;;;26.20;14.20;;;5.70;99.90;;;;;;5067549;28;20048;-71
2022/04/16 02:22:46;;;;;;;23.17;14.05;;;5.70;99.90;;;;;;5048740;28;20048;-72
2022/04/16 02:25:15;;;;;;;23.02;14.43;;;5.90;99.90;;;;;;5066676;28;20052;-72
2022/04/16 02:27:41;;;;;;;18.38;12.68;;;5.50;99.90;;;;;;5031871;28;20422;-72
2022/04/16 02:30:09;;;;;;;21.60;13.00;;;5.50;99.90;;;;;;5031188;28;20127;-72
2022/04/16 02:32:39;;;;;;;19.73;12.45;;;5.50;99.90;;;;;;5049461;28;20039;-72
2022/04/16 02:35:08;;;;;;;24.25;13.25;;;5.40;99.90;;;;;;5049994;28;20366;-72
2022/04/16 02:37:35;;;;;;;20.88;13.00;;;5.40;99.90;;;;;;5031549;28;20136;-71
2022/04/16 02:40:02;;;;;;;21.00;13.43;;;5.30;99.90;;;;;;5048223;28;20048;-72
2022/04/16 02:42:28;;;;;;;21.38;14.43;;;5.30;99.90;;;;;;5067651;28;20393;-71
2022/04/16 02:47:38;;;;;;;25.45;13.35;;;5.50;99.90;;;;;;5066349;28;20126;-72
2022/04/16 02:50:04;;;;;;;22.40;13.77;;;5.20;99.90;;;;;;5068008;28;20040;-72
2022/04/16 02:52:37;;;;;;;21.90;13.07;;;5.20;99.90;;;;;;5045940;28;20094;-71
2022/04/16 02:55:04;;;;;;;21.25;13.63;;;5.20;99.90;;;;;;5044617;28;20409;-71
2022/04/16 02:57:33;;;;;;;19.70;12.65;;;5.20;99.90;;;;;;5034344;28;20418;-72
2022/04/16 02:59:59;;;;;;;21.45;13.50;;;5.20;99.90;;;;;;5032814;28;20048;-71
2022/04/16 03:02:24;;;;;;;27.30;16.02;;;5.20;99.90;;;;;;5046839;28;20043;-72
2022/04/16 03:04:50;;;;;;;25.25;15.77;;;5.20;99.90;;;;;;5030621;28;20066;-72
2022/04/16 03:07:19;;;;;;;25.85;14.70;;;5.40;99.90;;;;;;5034709;28;20099;-72
2022/04/16 03:09:45;;;;;;;26.48;15.10;;;5.30;99.90;;;;;;5009893;28;20110;-72
2022/04/16 03:12:11;;;;;;;22.77;15.05;;;5.50;99.90;;;;;;5031946;28;20037;-72
2022/04/16 03:17:35;;;;;;;23.52;15.10;;;5.40;99.90;;;;;;5045371;28;20041;-71
2022/04/16 03:20:06;;;;;;;26.02;15.57;;;5.50;99.90;;;;;;5031489;28;20049;-71
2022/04/16 03:22:33;;;;;;;31.45;15.82;;;5.60;99.90;;;;;;5033068;28;20041;-71
2022/04/16 03:25:03;;;;;;;28.50;17.23;;;5.60;99.90;;;;;;5031064;28;20541;-71
2022/04/16 03:27:29;;;;;;;26.90;16.73;;;5.60;99.90;;;;;;5033912;28;20045;-73
2022/04/16 03:29:54;;;;;;;28.80;18.33;;;5.70;99.90;;;;;;5050856;28;20402;-70
2022/04/16 03:32:20;;;;;;;34.85;20.83;;;5.70;99.90;;;;;;5029083;28;20045;-70
2022/04/16 03:34:46;;;;;;;30.63;18.48;;;5.80;99.90;;;;;;5031015;28;20062;-71
2022/04/16 03:37:12;;;;;;;28.45;17.92;;;5.90;99.90;;;;;;5009274;28;20159;-71
2022/04/16 03:39:41;;;;;;;34.33;21.92;;;5.90;99.90;;;;;;5012218;28;20086;-71
2022/04/16 03:42:07;;;;;;;36.75;21.27;;;6.00;99.90;;;;;;5055162;28;20500;-71
2022/04/16 03:44:32;;;;;;;35.78;20.90;;;6.10;99.90;;;;;;5017247;28;20124;-71
2022/04/16 03:46:58;;;;;;;37.70;23.08;;;6.20;99.90;;;;;;5047491;28;20072;-71
2022/04/16 03:49:24;;;;;;;37.78;22.83;;;6.30;99.90;;;;;;5054875;28;20511;-71
2022/04/16 03:51:50;;;;;;;40.03;24.58;;;6.40;99.90;;;;;;5029293;28;20048;-72
2022/04/16 03:59:59;;;;;;;42.88;24.25;;;6.70;99.90;;;;;;5041249;28;20449;-72
2022/04/16 04:02:25;;;;;;;39.40;24.97;;;6.80;99.90;;;;;;5042311;28;20077;-71
2022/04/16 04:04:51;;;;;;;43.28;27.45;;;6.90;99.90;;;;;;5047152;28;20065;-72
2022/04/16 04:07:17;;;;;;;43.63;25.48;;;6.90;99.90;;;;;;5046522;28;20102;-71
2022/04/16 04:09:44;;;;;;;39.72;26.13;;;7.00;99.90;;;;;;5040110;28;20123;-71
2022/04/16 04:12:11;;;;;;;43.45;26.65;;;7.00;99.90;;;;;;5041201;28;20042;-72
2022/04/16 04:14:39;;;;;;;43.28;25.13;;;7.10;99.90;;;;;;5035899;28;20412;-71
2022/04/16 04:17:08;;;;;;;43.85;27.38;;;7.10;99.90;;;;;;5047079;28;20048;-71
2022/04/16 04:19:36;;;;;;;40.00;25.63;;;7.20;99.90;;;;;;5043562;28;20075;-72
2022/04/16 04:22:03;;;;;;;44.90;27.33;;;7.10;99.90;;;;;;5045644;28;20124;-71
2022/04/16 04:24:29;;;;;;;45.53;28.10;;;7.20;99.90;;;;;;5038971;28;20076;-71
2022/04/16 04:26:59;;;;;;;49.05;31.30;;;7.20;99.90;;;;;;5029546;28;20488;-72
2022/04/16 04:29:29;;;;;;;44.30;28.05;;;7.20;99.90;;;;;;5044909;28;20398;-71
2022/04/16 04:31:56;;;;;;;46.65;28.38;;;7.30;99.90;;;;;;5038951;28;20372;-72
2022/04/16 04:34:22;;;;;;;48.78;29.40;;;7.30;99.90;;;;;;5037605;28;20513;-72
2022/04/16 04:36:47;;;;;;;43.85;28.48;;;7.20;99.90;;;;;;5027175;28;20048;-72
2022/04/16 04:39:16;;;;;;;52.95;30.80;;;7.20;99.90;;;;;;5060124;28;20637;-71
2022/04/16 04:41:46;;;;;;;50.40;31.17;;;7.20;99.90;;;;;;5023858;28;20049;-71
2022/04/16 04:44:19;;;;;;;50.55;31.42;;;7.30;99.90;;;;;;5044350;28;20041;-71
2022/04/16 04:46:44;;;;;;;48.80;30.80;;;7.20;99.90;;;;;;5058951;28;20061;-71
2022/04/16 04:49:11;;;;;;;54.20;31.45;;;7.20;99.90;;;;;;5042615;28;20045;-71
2022/04/16 04:51:41;;;;;;;50.63;32.17;;;7.20;99.90;;;;;;5042843;28;20111;-71
2022/04/16 04:54:08;;;;;;;55.30;33.33;;;7.20;99.90;;;;;;5043958;28;20114;-72
2022/04/16 04:56:40;;;;;;;49.95;31.73;;;7.20;99.90;;;;;;5028461;28;20546;-72
2022/04/16 04:59:05;;;;;;;48.88;31.27;;;7.20;99.90;;;;;;5025026;28;20560;-72
2022/04/16 05:01:31;;;;;;;54.20;32.90;;;7.20;99.90;;;;;;5037603;28;20037;-72
2022/04/16 05:03:57;;;;;;;56.58;33.08;;;7.20;99.90;;;;;;5022208;28;20067;-72
2022/04/16 05:06:22;;;;;;;50.85;32.45;;;7.20;99.90;;;;;;5043937;28;20486;-72
2022/04/16 05:08:48;;;;;;;51.25;31.73;;;7.30;99.90;;;;;;5041687;28;20041;-71
2022/04/16 05:11:14;;;;;;;55.33;31.98;;;7.30;99.90;;;;;;5039206;28;20571;-71
2022/04/16 05:13:40;;;;;;;49.75;31.30;;;7.30;99.90;;;;;;5046167;28;20119;-71
2022/04/16 05:16:07;;;;;;;52.00;30.90;;;7.30;99.90;;;;;;5027301;28;20438;-72
2022/04/16 05:18:32;;;;;;;51.10;32.30;;;7.30;99.90;;;;;;5043508;28;20196;-72
2022/04/16 05:20:58;;;;;;;51.53;30.55;;;7.30;99.90;;;;;;5024991;28;20133;-70
2022/04/16 05:23:24;;;;;;;51.17;32.03;;;7.30;99.90;;;;;;5044129;28;20229;-73
2022/04/16 05:25:51;;;;;;;51.80;32.45;;;7.30;99.90;;;;;;5046260;28;20068;-72
2022/04/16 05:28:16;;;;;;;49.97;31.42;;;7.40;99.90;;;;;;5040795;28;20052;-71
2022/04/16 05:30:48;;;;;;;50.42;30.90;;;7.40;99.90;;;;;;5025312;28;20060;-72
2022/04/16 05:34:18;;;;;;;50.50;31.00;;;7.40;99.90;;;;;;5040662;28;20114;-72
2022/04/16 05:36:06;;;;;;;50.20;32.33;;;7.40;99.90;;;;;;5038040;28;20045;-72
2022/04/16 05:38:32;;;;;;;52.08;32.75;;;7.40;99.90;;;;;;5043501;28;20040;-73
2022/04/16 05:40:58;;;;;;;50.83;31.55;;;7.40;99.90;;;;;;5043341;28;20087;-72
2022/04/16 05:43:24;;;;;;;49.40;30.65;;;7.40;99.90;;;;;;5043013;28;20073;-72
2022/04/16 05:45:50;;;;;;;53.50;32.65;;;7.40;99.90;;;;;;5037769;28;20037;-73
2022/04/16 05:48:17;;;;;;;45.00;30.17;;;7.40;99.90;;;;;;5037453;28;20076;-71
2022/04/16 05:50:46;;;;;;;49.05;29.88;;;7.50;99.90;;;;;;5059292;28;20441;-72
2022/04/16 05:53:13;;;;;;;52.30;30.65;;;7.50;99.90;;;;;;5044229;28;20348;-72
2022/04/16 05:55:41;;;;;;;48.85;29.70;;;7.50;99.90;;;;;;5042382;28;20037;-72
2022/04/16 05:58:07;;;;;;;42.13;26.58;;;7.50;99.90;;;;;;5008609;28;20075;-72
2022/04/16 06:00:33;;;;;;;45.33;27.73;;;7.50;99.90;;;;;;5044733;28;20966;-72
2022/04/16 06:02:59;;;;;;;43.83;27.95;;;8.00;99.90;;;;;;5039831;28;20036;-71
2022/04/16 06:05:25;;;;;;;41.63;27.90;;;7.60;99.90;;;;;;5045214;28;20051;-73
2022/04/16 06:07:51;;;;;;;41.60;26.15;;;7.60;99.90;;;;;;5048662;28;20104;-72
2022/04/16 06:10:16;;;;;;;44.83;26.92;;;7.60;99.90;;;;;;5048274;28;20499;-72
2022/04/16 06:12:42;;;;;;;41.17;26.38;;;7.60;99.90;;;;;;5061842;28;20037;-72
2022/04/16 06:15:08;;;;;;;42.53;26.15;;;7.60;99.90;;;;;;5066065;28;20036;-72
2022/04/16 06:17:35;;;;;;;43.10;25.42;;;7.60;99.90;;;;;;5049717;28;20520;-71
2022/04/16 06:20:01;;;;;;;35.88;21.13;;;7.70;99.90;;;;;;5049340;28;20115;-72
2022/04/16 06:22:27;;;;;;;33.20;20.58;;;7.70;99.90;;;;;;5033914;28;20032;-72
2022/04/16 06:24:52;;;;;;;29.38;19.02;;;7.70;99.90;;;;;;5050328;28;20090;-72
2022/04/16 06:27:19;;;;;;;31.00;17.95;;;7.80;99.90;;;;;;5068899;28;20412;-72
2022/04/16 06:29:44;;;;;;;26.45;16.00;;;7.80;99.90;;;;;;5069661;28;20552;-73
2022/04/16 06:32:10;;;;;;;26.48;17.30;;;7.80;99.90;;;;;;5047402;28;20148;-72
2022/04/16 06:34:36;;;;;;;24.90;16.45;;;7.80;99.90;;;;;;5065676;28;20043;-72
2022/04/16 06:37:01;;;;;;;27.23;16.80;;;7.90;99.90;;;;;;5038989;28;20044;-72
2022/04/16 06:39:27;;;;;;;25.35;14.93;;;7.90;99.90;;;;;;5039664;28;20126;-72
2022/04/16 06:41:53;;;;;;;28.30;15.63;;;7.90;99.90;;;;;;5037825;28;20056;-72
2022/04/16 06:44:18;;;;;;;26.85;15.25;;;8.00;99.90;;;;;;5038336;28;20043;-72
2022/04/16 06:46:45;;;;;;;25.17;15.05;;;8.10;99.90;;;;;;5019113;28;20041;-72
2022/04/16 06:49:11;;;;;;;24.50;14.65;;;8.10;99.90;;;;;;5057652;28;20057;-72
2022/04/16 06:51:37;;;;;;;25.52;15.35;;;8.20;99.90;;;;;;5061076;28;20056;-72
2022/04/16 06:54:02;;;;;;;26.70;16.60;;;8.30;99.90;;;;;;5062114;28;20047;-73
2022/04/16 06:56:28;;;;;;;25.08;15.13;;;8.40;99.90;;;;;;5064746;28;20043;-72
2022/04/16 06:58:55;;;;;;;25.85;15.07;;;8.60;99.90;;;;;;5031559;28;20052;-72
2022/04/16 07:01:21;;;;;;;24.08;14.68;;;9.00;99.90;;;;;;5042715;28;21530;-72
2022/04/16 07:03:46;;;;;;;24.85;14.50;;;9.30;99.90;;;;;;5018425;28;20048;-72
2022/04/16 07:06:12;;;;;;;24.63;15.00;;;9.40;99.90;;;;;;5032785;28;20539;-72
2022/04/16 07:08:38;;;;;;;23.20;14.30;;;9.60;99.90;;;;;;5053564;28;20044;-72
2022/04/16 07:11:04;;;;;;;22.30;13.40;;;9.70;99.90;;;;;;5050131;28;20179;-72
2022/04/16 07:13:29;;;;;;;21.58;13.95;;;9.90;99.90;;;;;;5034484;28;20049;-72
2022/04/16 07:15:55;;;;;;;22.27;12.60;;;10.10;99.90;;;;;;5025306;28;20090;-72
2022/04/16 07:18:21;;;;;;;20.27;11.65;;;10.20;99.90;;;;;;5038766;28;20063;-72
2022/04/16 07:20:47;;;;;;;17.35;10.52;;;10.30;99.90;;;;;;5019449;28;20053;-72
2022/04/16 07:23:16;;;;;;;19.38;10.40;;;10.50;99.90;;;;;;5039216;28;20847;-71
2022/04/16 07:25:41;;;;;;;19.90;9.85;;;10.60;99.90;;;;;;5062275;28;20408;-73
2022/04/16 07:28:07;;;;;;;19.20;10.02;;;10.60;99.90;;;;;;5043146;28;20048;-72
2022/04/16 07:30:33;;;;;;;18.33;9.20;;;10.60;99.90;;;;;;5061431;28;20052;-72
2022/04/16 07:32:59;;;;;;;16.75;9.57;;;10.70;99.90;;;;;;5055352;28;20048;-72
2022/04/16 07:35:26;;;;;;;19.05;10.02;;;11.50;99.90;;;;;;5032981;28;20045;-71
2022/04/16 07:37:57;;;;;;;18.13;9.75;;;11.00;99.90;;;;;;5051623;28;20049;-71
2022/04/16 07:40:24;;;;;;;14.85;9.82;;;11.20;99.90;;;;;;5032245;28;20272;-71
2022/04/16 07:42:49;;;;;;;16.75;9.88;;;11.40;99.90;;;;;;5039553;28;20072;-72
2022/04/16 07:45:15;;;;;;;18.75;10.07;;;11.60;99.90;;;;;;5037584;28;20115;-72
2022/04/16 07:47:41;;;;;;;16.17;9.38;;;11.70;99.90;;;;;;5039116;28;20101;-71
2022/04/16 07:50:07;;;;;;;16.67;10.25;;;11.90;99.90;;;;;;5061316;28;20055;-71
2022/04/16 07:52:33;;;;;;;21.90;12.07;;;12.00;99.90;;;;;;5051081;28;20130;-70
2022/04/16 07:54:58;;;;;;;19.63;10.38;;;12.10;99.90;;;;;;5030991;28;20076;-71
2022/04/16 07:57:24;;;;;;;16.65;10.10;;;12.20;99.90;;;;;;5040118;28;20524;-70
2022/04/16 07:59:50;;;;;;;18.00;10.77;;;12.20;99.90;;;;;;5030896;28;20309;-71
2022/04/16 08:02:15;;;;;;;19.40;10.43;;;12.20;99.90;;;;;;5027100;28;20049;-72
2022/04/16 08:04:41;;;;;;;14.98;8.55;;;12.30;99.90;;;;;;5045268;28;20080;-72
2022/04/16 08:07:07;;;;;;;15.00;9.02;;;12.50;99.90;;;;;;5035448;28;20045;-72
2022/04/16 08:09:32;;;;;;;14.13;8.43;;;12.60;99.90;;;;;;5043140;28;20180;-71
2022/04/16 08:11:58;;;;;;;16.20;8.55;;;12.80;99.90;;;;;;5064065;28;20041;-71
2022/04/16 08:14:25;;;;;;;15.02;8.48;;;12.90;99.90;;;;;;5029411;28;20039;-71
2022/04/16 08:16:50;;;;;;;15.20;8.57;;;13.00;99.90;;;;;;5063110;28;20048;-71
2022/04/16 08:19:16;;;;;;;16.20;7.82;;;12.90;99.90;;;;;;5042965;28;20501;-71
2022/04/16 08:21:42;;;;;;;14.80;8.07;;;12.80;99.90;;;;;;5063567;28;20037;-72
2022/04/16 08:26:36;;;;;;;14.77;7.45;;;12.80;99.90;;;;;;5048841;28;20052;-72
2022/04/16 08:29:02;;;;;;;14.63;8.13;;;12.90;99.90;;;;;;5047704;28;20047;-71
2022/04/16 08:31:28;;;;;;;16.45;7.63;;;13.00;99.90;;;;;;5045269;28;20056;-71
2022/04/16 08:33:54;;;;;;;17.25;7.40;;;13.00;99.90;;;;;;5063589;28;20094;-71
2022/04/16 08:36:20;;;;;;;12.48;6.03;;;13.00;99.90;;;;;;5044328;28;20036;-72
2022/04/16 08:38:45;;;;;;;12.73;6.47;;;13.10;99.90;;;;;;5046447;28;20044;-71
2022/04/16 08:41:12;;;;;;;9.95;5.60;;;13.50;99.90;;;;;;5054984;28;20435;-71
2022/04/16 08:43:41;;;;;;;11.20;5.43;;;13.10;99.90;;;;;;5049176;28;20141;-72
2022/04/16 08:46:07;;;;;;;9.05;4.18;;;13.30;99.90;;;;;;5048180;28;20099;-72
2022/04/16 08:48:33;;;;;;;9.88;5.18;;;13.30;99.90;;;;;;5013683;28;20047;-69
2022/04/16 08:51:00;;;;;;;9.88;4.47;;;13.40;99.90;;;;;;5064130;28;20048;-70
2022/04/16 08:53:26;;;;;;;9.52;4.50;;;13.40;99.90;;;;;;5046627;28;20048;-72
2022/04/16 08:55:51;;;;;;;8.93;4.80;;;13.50;99.90;;;;;;5047026;28;20053;-73
2022/04/16 08:58:17;;;;;;;11.52;4.90;;;13.60;99.90;;;;;;5045221;28;20040;-72
2022/04/16 09:00:43;;;;;;;12.00;4.45;;;13.70;99.90;;;;;;5046158;28;20044;-71
2022/04/16 09:03:09;;;;;;;10.52;4.13;;;13.90;99.90;;;;;;5026276;28;20063;-71
2022/04/16 09:05:35;;;;;;;9.10;4.20;;;14.10;99.90;;;;;;5042845;28;20059;-72
2022/04/16 09:08:03;;;;;;;8.93;4.13;;;14.10;99.90;;;;;;5062091;28;20463;-71
2022/04/16 09:10:31;;;;;;;7.13;3.03;;;14.30;99.90;;;;;;5045220;28;20040;-72
2022/04/16 09:13:01;;;;;;;6.70;2.95;;;14.20;96.50;;;;;;5063531;28;20070;-72
2022/04/16 09:15:28;;;;;;;5.93;2.50;;;14.10;96.30;;;;;;5028889;28;20133;-72
2022/04/16 09:17:59;;;;;;;7.75;2.60;;;14.00;94.50;;;;;;5044741;28;20059;-73
2022/04/16 09:20:34;;;;;;;5.82;2.45;;;14.00;91.90;;;;;;5046604;28;20044;-70
2022/04/16 09:23:01;;;;;;;7.15;2.15;;;13.90;92.10;;;;;;5045041;28;20059;-70
2022/04/16 09:25:30;;;;;;;4.47;2.00;;;13.80;91.50;;;;;;5064431;28;20080;-71
2022/04/16 09:27:58;;;;;;;6.75;2.13;;;14.00;92.50;;;;;;5045505;28;20037;-71
2022/04/16 09:30:26;;;;;;;5.47;1.75;;;14.10;94.80;;;;;;5045062;28;20045;-72
2022/04/16 09:32:54;;;;;;;6.25;2.33;;;14.30;92.70;;;;;;5020504;28;20087;-72
2022/04/16 09:35:35;;;;;;;5.25;1.80;;;14.50;92.60;;;;;;5025534;28;20043;-72
2022/04/16 09:38:07;;;;;;;4.70;2.00;;;14.50;90.10;;;;;;5038801;28;20333;-72
2022/04/16 09:40:34;;;;;;;5.63;1.70;;;14.60;90.80;;;;;;5027954;28;20317;-72
2022/04/16 09:43:05;;;;;;;6.00;2.05;;;14.80;94.60;;;;;;5061408;28;20040;-74
2022/04/16 09:45:33;;;;;;;6.68;2.40;;;14.80;89.90;;;;;;5027733;28;20052;-73
2022/04/16 09:48:00;;;;;;;6.00;2.10;;;14.80;91.00;;;;;;5062942;28;20040;-73
2022/04/16 09:50:29;;;;;;;6.22;2.20;;;14.70;89.20;;;;;;5031771;28;20036;-72
2022/04/16 09:52:56;;;;;;;4.90;2.00;;;14.60;86.10;;;;;;5042109;28;20037;-72
2022/04/16 09:55:24;;;;;;;6.68;2.30;;;14.60;86.70;;;;;;5041641;28;20056;-74
2022/04/16 09:58:04;;;;;;;5.60;2.25;;;14.70;90.00;;;;;;5044366;28;20540;-74
2022/04/16 10:00:32;;;;;;;7.20;2.05;;;14.70;82.30;;;;;;5051195;28;20181;-72
2022/04/16 10:02:59;;;;;;;5.75;1.98;;;14.70;82.20;;;;;;5040070;28;20083;-73
2022/04/16 10:05:25;;;;;;;4.68;2.00;;;14.60;85.80;;;;;;5057206;28;20091;-73
2022/04/16 10:07:55;;;;;;;4.32;1.90;;;14.50;82.80;;;;;;5063240;28;20068;-72
2022/04/16 10:11:03;;;;;;;4.53;1.80;;;14.40;81.50;;;;;;5045158;23;20092;-78
2022/04/16 10:13:13;;;;;;;5.53;1.70;;;14.40;78.20;;;;;;4979486;28;20054;-76
2022/04/16 10:15:59;;;;;;;6.18;2.13;;;14.40;84.10;;;;;;4976753;28;20133;-79
2022/04/16 10:18:26;;;;;;;4.82;1.80;;;14.40;79.10;;;;;;4964786;28;20062;-79
2022/04/16 10:20:56;;;;;;;4.25;1.30;;;14.50;77.90;;;;;;4984937;28;20089;-78
2022/04/16 10:23:37;;;;;;;5.53;1.70;;;14.40;79.00;;;;;;4984905;28;20185;-78
2022/04/16 10:26:16;;;;;;;4.60;1.50;;;14.40;78.20;;;;;;4965641;28;20362;-79
2022/04/16 10:28:51;;;;;;;5.60;1.40;;;14.40;80.10;;;;;;4987185;28;20046;-77
2022/04/16 10:31:22;;;;;;;3.53;1.23;;;14.50;78.80;;;;;;4971898;28;20077;-81
2022/04/16 10:34:04;;;;;;;3.83;0.88;;;14.50;69.30;;;;;;4983024;28;20130;-76
2022/04/16 10:36:38;;;;;;;2.38;1.10;;;14.50;74.30;;;;;;4989565;28;20045;-78
2022/04/16 10:39:24;;;;;;;4.05;1.30;;;14.50;70.80;;;;;;4952375;28;20215;-80
2022/04/16 10:41:58;;;;;;;2.92;1.02;;;14.70;76.50;;;;;;4969965;28;20586;-81
2022/04/16 10:44:25;;;;;;;3.92;1.20;;;14.90;75.60;;;;;;4962148;28;20726;-79
2022/04/16 10:46:52;;;;;;;5.72;1.10;;;15.10;67.20;;;;;;4947385;28;20038;-79
2022/04/16 10:49:23;;;;;;;2.65;1.00;;;14.80;69.60;;;;;;4972362;28;20064;-78
2022/04/16 10:51:55;;;;;;;61.97;4.72;;;14.70;69.00;;;;;;4980896;28;20234;-77
2022/04/16 10:54:34;;;;;;;5.05;1.00;;;14.60;67.00;;;;;;4961566;28;20054;-76
2022/04/16 10:57:01;;;;;;;1.90;0.88;;;14.60;69.90;;;;;;4979244;28;20099;-81
2022/04/16 10:59:37;;;;;;;3.33;1.20;;;14.60;68.70;;;;;;4967247;28;20053;-80
2022/04/16 11:02:21;;;;;;;3.22;1.25;;;14.60;65.60;;;;;;4979446;28;20042;-80
2022/04/16 11:05:02;;;;;;;6.45;1.48;;;14.60;69.70;;;;;;4978257;28;20129;-80
2022/04/16 11:07:30;;;;;;;4.57;0.93;;;14.70;70.70;;;;;;4962332;28;20042;-80
2022/04/16 11:09:57;;;;;;;1.30;0.55;;;14.80;68.20;;;;;;4940374;28;20129;-80
2022/04/16 11:12:24;;;;;;;1.98;0.70;;;15.10;67.20;;;;;;4960337;28;20042;-78
2022/04/16 11:14:51;;;;;;;2.88;0.90;;;15.00;68.50;;;;;;4972305;28;20129;-76
2022/04/16 11:17:19;;;;;;;2.33;0.75;;;15.00;64.30;;;;;;4943448;28;20038;-80
2022/04/16 11:19:45;;;;;;;2.03;0.80;;;15.00;65.00;;;;;;4955225;28;20149;-78
2022/04/16 11:22:11;;;;;;;3.03;0.80;;;15.00;59.70;;;;;;4962474;28;20136;-77
2022/04/16 11:24:39;;;;;;;1.85;1.00;;;15.00;60.60;;;;;;4958630;28;20054;-77
2022/04/16 11:35:24;;;;;;;2.33;0.93;;;15.30;59.30;;;;;;4981710;28;20056;-77
2022/04/16 11:37:56;;;;;;;2.55;1.00;;;15.40;59.20;;;;;;4979442;28;20831;-81
2022/04/16 11:40:22;;;;;;;3.60;0.90;;;15.20;56.80;;;;;;4949722;28;20096;-81
2022/04/16 11:42:49;;;;;;;1.95;0.70;;;15.40;56.80;;;;;;4954230;28;20039;-79
2022/04/16 11:45:15;;;;;;;1.38;0.63;;;15.10;58.40;;;;;;4961345;28;20801;-78
2022/04/16 11:47:41;;;;;;;2.60;0.98;;;15.20;59.50;;;;;;4955609;28;20046;-79
2022/04/16 11:50:10;;;;;;;3.40;0.65;;;15.20;57.30;;;;;;4953693;28;20921;-79
2022/04/16 11:52:37;;;;;;;2.13;0.60;;;15.20;54.90;;;;;;4969278;28;20515;-77
2022/04/16 11:55:17;;;;;;;3.35;0.93;;;15.10;58.80;;;;;;4996912;28;20081;-80
2022/04/16 11:57:47;;;;;;;2.70;0.90;;;15.10;58.60;;;;;;4939833;28;20053;-79
2022/04/16 12:00:18;;;;;;;4.18;0.90;;;15.20;59.00;;;;;;4960780;28;20495;-80
2022/04/16 12:02:47;;;;;;;3.08;1.45;;;15.20;60.00;;;;;;4965516;28;20262;-78
2022/04/16 12:05:23;;;;;;;1.55;0.70;;;15.20;59.10;;;;;;4962503;28;20050;-79
2022/04/16 12:07:49;;;;;;;2.67;0.90;;;15.20;60.00;;;;;;4944790;28;20054;-78
2022/04/16 12:10:18;;;;;;;3.58;0.90;;;15.30;59.80;;;;;;4973999;28;20058;-78
2022/04/16 12:12:48;;;;;;;3.20;0.90;;;15.20;60.20;;;;;;4965506;28;20054;-79
2022/04/16 12:15:27;;;;;;;2.83;0.90;;;15.20;60.20;;;;;;4974408;28;20046;-78
2022/04/16 12:17:58;;;;;;;1.77;1.08;;;15.30;59.90;;;;;;4947867;28;20056;-79
2022/04/16 12:20:24;;;;;;;3.20;0.90;;;15.30;61.50;;;;;;4957833;28;20849;-79
2022/04/16 12:22:51;;;;;;;2.38;0.75;;;15.40;61.80;;;;;;4968967;28;20397;-78
2022/04/16 12:25:19;;;;;;;1.92;0.80;;;15.50;59.80;;;;;;4938452;28;20116;-78
2022/04/16 12:27:53;;;;;;;4.13;1.10;;;15.30;62.10;;;;;;4968813;28;20050;-79
2022/04/16 12:30:24;;;;;;;1.77;0.80;;;15.30;60.30;;;;;;4949462;28;20053;-79
2022/04/16 12:33:04;;;;;;;2.25;0.77;;;15.40;59.60;;;;;;4938365;28;20132;-78
2022/04/16 12:35:35;;;;;;;2.03;0.80;;;15.50;61.60;;;;;;4936812;28;20883;-78
2022/04/16 12:38:04;;;;;;;2.03;0.90;;;15.60;61.30;;;;;;4958493;28;20175;-78
2022/04/16 12:40:31;;;;;;;2.42;0.82;;;15.80;61.80;;;;;;4951529;28;20046;-79
2022/04/16 12:42:59;;;;;;;2.53;0.80;;;15.70;63.20;;;;;;4958992;28;20104;-81
2022/04/16 12:45:26;;;;;;;3.30;1.02;;;15.90;60.30;;;;;;4971373;28;20670;-80
2022/04/16 12:47:52;;;;;;;3.05;0.85;;;15.80;61.30;;;;;;4938687;28;20608;-80
2022/04/16 12:50:18;;;;;;;1.83;0.77;;;15.80;59.50;;;;;;4948016;28;20815;-79
2022/04/16 12:52:44;;;;;;;4.25;0.90;;;15.70;57.20;;;;;;4970566;28;20109;-80
2022/04/16 12:55:10;;;;;;;1.92;0.60;;;15.70;59.40;;;;;;4955343;28;20034;-80
2022/04/16 12:57:37;;;;;;;5.50;1.00;;;15.70;57.80;;;;;;4938509;28;20056;-80
2022/04/16 13:00:12;;;;;;;5.15;1.48;;;15.70;60.40;;;;;;4959078;28;20065;-80
2022/04/16 13:02:42;;;;;;;2.33;0.80;;;15.80;59.70;;;;;;4946563;28;20042;-79
2022/04/16 13:05:09;;;;;;;6.90;1.23;;;15.80;58.70;;;;;;4962988;28;20116;-79